sensor_id;sensor_type;location;lat;lon;timestamp;pressure;altitude;pressure_sealevel;temperature;humidity
70589;BME280;58152;49.202;18.744;2023-04-06T00:01:30;97564.81;;;1.52;42.17
70589;BME280;58152;49.202;18.744;2023-04-06T00:04:02;97551.06;;;1.47;42.68
70589;BME280;58152;49.202;18.744;2023-04-06T00:06:29;97563.06;;;1.55;42.62
70589;BME280;58152;49.202;18.744;2023-04-06T00:08:55;97545.00;;;1.50;42.39
70589;BME280;58152;49.202;18.744;2023-04-06T00:11:21;97559.59;;;1.62;42.33
70589;BME280;58152;49.202;18.744;2023-04-06T00:13:46;97554.41;;;1.59;42.65
70589;BME280;58152;49.202;18.744;2023-04-06T00:16:15;97558.75;;;1.55;42.67
70589;BME280;58152;49.202;18.744;2023-04-06T00:18:42;97552.78;;;1.47;42.67
70589;BME280;58152;49.202;18.744;2023-04-06T00:21:11;97542.50;;;1.38;42.71
70589;BME280;58152;49.202;18.744;2023-04-06T00:23:38;97547.66;;;1.38;43.00
70589;BME280;58152;49.202;18.744;2023-04-06T00:26:03;97538.25;;;1.29;43.18
70589;BME280;58152;49.202;18.744;2023-04-06T00:28:29;97539.97;;;1.25;42.63
70589;BME280;58152;49.202;18.744;2023-04-06T00:30:55;97534.81;;;1.22;43.10
70589;BME280;58152;49.202;18.744;2023-04-06T00:33:21;97536.56;;;1.17;43.46
70589;BME280;58152;49.202;18.744;2023-04-06T00:35:47;97536.59;;;1.16;43.26
70589;BME280;58152;49.202;18.744;2023-04-06T00:38:14;97541.78;;;1.11;43.37
70589;BME280;58152;49.202;18.744;2023-04-06T00:40:39;97539.19;;;1.05;43.59
70589;BME280;58152;49.202;18.744;2023-04-06T00:43:08;97540.94;;;1.00;43.49
70589;BME280;58152;49.202;18.744;2023-04-06T00:45:36;97539.25;;;0.96;43.73
70589;BME280;58152;49.202;18.744;2023-04-06T00:48:03;97527.22;;;0.90;43.73
70589;BME280;58152;49.202;18.744;2023-04-06T00:50:28;97533.25;;;0.91;44.01
70589;BME280;58152;49.202;18.744;2023-04-06T00:52:54;97535.00;;;0.87;43.56
70589;BME280;58152;49.202;18.744;2023-04-06T00:55:20;97541.88;;;0.87;44.08
70589;BME280;58152;49.202;18.744;2023-04-06T00:57:46;97534.13;;;0.82;43.67
70589;BME280;58152;49.202;18.744;2023-04-06T01:00:12;97536.75;;;0.79;44.05
70589;BME280;58152;49.202;18.744;2023-04-06T01:02:38;97537.63;;;0.78;44.52
70589;BME280;58152;49.202;18.744;2023-04-06T01:05:04;97529.91;;;0.73;44.39
70589;BME280;58152;49.202;18.744;2023-04-06T01:07:30;97535.03;;;0.72;44.46
70589;BME280;58152;49.202;18.744;2023-04-06T01:09:55;97535.91;;;0.68;44.59
70589;BME280;58152;49.202;18.744;2023-04-06T01:12:21;97538.50;;;0.68;44.19
70589;BME280;58152;49.202;18.744;2023-04-06T01:14:46;97530.78;;;0.65;44.31
70589;BME280;58152;49.202;18.744;2023-04-06T01:17:12;97527.31;;;0.63;44.73
70589;BME280;58152;49.202;18.744;2023-04-06T01:19:37;97531.63;;;0.59;44.54
70589;BME280;58152;49.202;18.744;2023-04-06T01:22:04;97536.81;;;0.59;44.95
70589;BME280;58152;49.202;18.744;2023-04-06T01:24:30;97530.81;;;0.56;44.92
70589;BME280;58152;49.202;18.744;2023-04-06T01:26:55;97530.78;;;0.54;44.55
70589;BME280;58152;49.202;18.744;2023-04-06T01:29:21;97536.81;;;0.50;44.98
70589;BME280;58152;49.202;18.744;2023-04-06T01:31:47;97526.53;;;0.44;45.40
70589;BME280;58152;49.202;18.744;2023-04-06T01:34:12;97529.97;;;0.43;45.20
70589;BME280;58152;49.202;18.744;2023-04-06T01:36:38;97531.69;;;0.41;45.75
70589;BME280;58152;49.202;18.744;2023-04-06T01:39:03;97525.69;;;0.36;45.57
70589;BME280;58152;49.202;18.744;2023-04-06T01:41:28;97529.13;;;0.35;45.73
70589;BME280;58152;49.202;18.744;2023-04-06T01:43:54;97529.16;;;0.33;45.94
70589;BME280;58152;49.202;18.744;2023-04-06T01:46:20;97525.72;;;0.33;45.40
70589;BME280;58152;49.202;18.744;2023-04-06T01:48:45;97523.13;;;0.30;45.50
70589;BME280;58152;49.202;18.744;2023-04-06T01:51:11;97519.69;;;0.28;45.79
70589;BME280;58152;49.202;18.744;2023-04-06T01:53:36;97527.44;;;0.24;45.62
70589;BME280;58152;49.202;18.744;2023-04-06T01:56:02;97526.56;;;0.21;45.90
70589;BME280;58152;49.202;18.744;2023-04-06T01:58:27;97509.41;;;0.11;46.15
70589;BME280;58152;49.202;18.744;2023-04-06T02:00:53;97521.44;;;0.12;46.04
70589;BME280;58152;49.202;18.744;2023-04-06T02:03:19;97521.44;;;0.10;45.98
70589;BME280;58152;49.202;18.744;2023-04-06T02:05:45;97512.00;;;0.06;45.85
70589;BME280;58152;49.202;18.744;2023-04-06T02:08:10;97510.25;;;-0.01;46.10
70589;BME280;58152;49.202;18.744;2023-04-06T02:10:36;97510.28;;;-0.04;46.03
70589;BME280;58152;49.202;18.744;2023-04-06T02:13:01;97516.31;;;-0.04;46.48
70589;BME280;58152;49.202;18.744;2023-04-06T02:15:27;97517.13;;;-0.05;46.32
70589;BME280;58152;49.202;18.744;2023-04-06T02:17:52;97510.28;;;-0.09;46.86
70589;BME280;58152;49.202;18.744;2023-04-06T02:20:18;97506.00;;;-0.13;46.42
70589;BME280;58152;49.202;18.744;2023-04-06T02:22:44;97505.13;;;-0.12;46.58
70589;BME280;58152;49.202;18.744;2023-04-06T02:25:10;97509.44;;;-0.12;46.64
70589;BME280;58152;49.202;18.744;2023-04-06T02:27:35;97512.88;;;-0.13;46.93
70589;BME280;58152;49.202;18.744;2023-04-06T02:30:04;97517.16;;;-0.14;46.78
70589;BME280;58152;49.202;18.744;2023-04-06T02:32:30;97512.00;;;-0.17;46.34
70589;BME280;58152;49.202;18.744;2023-04-06T02:34:55;97521.44;;;-0.19;46.58
70589;BME280;58152;49.202;18.744;2023-04-06T02:37:21;97519.75;;;-0.21;47.18
70589;BME280;58152;49.202;18.744;2023-04-06T02:39:48;97512.84;;;-0.24;46.99
70589;BME280;58152;49.202;18.744;2023-04-06T02:42:13;97515.44;;;-0.24;46.98
70589;BME280;58152;49.202;18.744;2023-04-06T02:44:41;97510.31;;;-0.27;46.72
70589;BME280;58152;49.202;18.744;2023-04-06T02:47:06;97505.16;;;-0.27;47.34
70589;BME280;58152;49.202;18.744;2023-04-06T02:49:32;97507.72;;;-0.30;47.48
70589;BME280;58152;49.202;18.744;2023-04-06T02:51:57;97505.97;;;-0.33;47.33
70589;BME280;58152;49.202;18.744;2023-04-06T02:54:22;97500.81;;;-0.37;47.41
70589;BME280;58152;49.202;18.744;2023-04-06T02:56:48;97496.53;;;-0.41;47.27
70589;BME280;58152;49.202;18.744;2023-04-06T02:59:13;97506.84;;;-0.41;47.77
70589;BME280;58152;49.202;18.744;2023-04-06T03:01:39;97506.00;;;-0.45;47.60
70589;BME280;58152;49.202;18.744;2023-04-06T03:04:04;97505.97;;;-0.46;47.73
70589;BME280;58152;49.202;18.744;2023-04-06T03:06:30;97506.84;;;-0.47;47.64
70589;BME280;58152;49.202;18.744;2023-04-06T03:08:55;97500.84;;;-0.49;47.60
70589;BME280;58152;49.202;18.744;2023-04-06T03:11:21;97501.69;;;-0.52;47.73
70589;BME280;58152;49.202;18.744;2023-04-06T03:13:46;97502.53;;;-0.52;47.58
70589;BME280;58152;49.202;18.744;2023-04-06T03:16:12;97496.53;;;-0.54;47.77
70589;BME280;58152;49.202;18.744;2023-04-06T03:18:37;97499.09;;;-0.55;47.80
70589;BME280;58152;49.202;18.744;2023-04-06T03:21:02;97499.97;;;-0.58;48.02
70589;BME280;58152;49.202;18.744;2023-04-06T03:23:28;97502.56;;;-0.59;48.28
70589;BME280;58152;49.202;18.744;2023-04-06T03:25:53;97499.97;;;-0.62;48.06
70589;BME280;58152;49.202;18.744;2023-04-06T03:28:19;97505.97;;;-0.65;48.18
70589;BME280;58152;49.202;18.744;2023-04-06T03:30:45;97506.81;;;-0.66;48.29
70589;BME280;58152;49.202;18.744;2023-04-06T03:33:10;97513.69;;;-0.66;48.26
70589;BME280;58152;49.202;18.744;2023-04-06T03:35:36;97512.81;;;-0.70;48.22
70589;BME280;58152;49.202;18.744;2023-04-06T03:38:02;97515.41;;;-0.73;48.37
70589;BME280;58152;49.202;18.744;2023-04-06T03:40:28;97516.28;;;-0.72;48.36
70589;BME280;58152;49.202;18.744;2023-04-06T03:42:53;97511.13;;;-0.77;48.44
70589;BME280;58152;49.202;18.744;2023-04-06T03:45:19;97517.09;;;-0.78;48.51
70589;BME280;58152;49.202;18.744;2023-04-06T03:47:44;97517.13;;;-0.81;48.24
70589;BME280;58152;49.202;18.744;2023-04-06T03:50:10;97508.53;;;-0.86;48.53
70589;BME280;58152;49.202;18.744;2023-04-06T03:52:35;97513.66;;;-0.86;48.63
70589;BME280;58152;49.202;18.744;2023-04-06T03:55:01;97519.66;;;-0.90;48.84
70589;BME280;58152;49.202;18.744;2023-04-06T03:57:27;97514.50;;;-0.93;48.43
70589;BME280;58152;49.202;18.744;2023-04-06T03:59:52;97505.91;;;-1.00;48.96
70589;BME280;58152;49.202;18.744;2023-04-06T04:02:18;97523.06;;;-0.97;48.59
70589;BME280;58152;49.202;18.744;2023-04-06T04:04:43;97519.63;;;-1.03;48.83
70589;BME280;58152;49.202;18.744;2023-04-06T04:07:08;97520.47;;;-1.02;49.26
70589;BME280;58152;49.202;18.744;2023-04-06T04:09:34;97517.91;;;-1.04;49.65
70589;BME280;58152;49.202;18.744;2023-04-06T04:12:00;97528.22;;;-1.05;49.11
70589;BME280;58152;49.202;18.744;2023-04-06T04:14:25;97530.78;;;-1.07;49.09
70589;BME280;58152;49.202;18.744;2023-04-06T04:16:52;97525.63;;;-1.10;48.85
70589;BME280;58152;49.202;18.744;2023-04-06T04:19:17;97522.19;;;-1.12;49.16
70589;BME280;58152;49.202;18.744;2023-04-06T04:21:43;97527.31;;;-1.15;49.35
70589;BME280;58152;49.202;18.744;2023-04-06T04:24:13;97538.47;;;-1.11;49.39
70589;BME280;58152;49.202;18.744;2023-04-06T04:26:39;97535.03;;;-1.15;49.14
70589;BME280;58152;49.202;18.744;2023-04-06T04:29:04;97529.03;;;-1.18;49.84
70589;BME280;58152;49.202;18.744;2023-04-06T04:31:30;97527.31;;;-1.18;49.84
70589;BME280;58152;49.202;18.744;2023-04-06T04:33:55;97527.28;;;-1.21;49.76
70589;BME280;58152;49.202;18.744;2023-04-06T04:36:21;97528.16;;;-1.20;49.89
70589;BME280;58152;49.202;18.744;2023-04-06T04:38:46;97523.00;;;-1.22;50.08
70589;BME280;58152;49.202;18.744;2023-04-06T04:41:12;97519.56;;;-1.27;49.86
70589;BME280;58152;49.202;18.744;2023-04-06T04:43:38;97524.72;;;-1.22;49.80
70589;BME280;58152;49.202;18.744;2023-04-06T04:46:04;97520.41;;;-1.28;49.94
70589;BME280;58152;49.202;18.744;2023-04-06T04:48:30;97532.41;;;-1.24;50.09
70589;BME280;58152;49.202;18.744;2023-04-06T04:50:55;97521.25;;;-1.32;50.24
70589;BME280;58152;49.202;18.744;2023-04-06T04:53:21;97533.28;;;-1.26;50.09
70589;BME280;58152;49.202;18.744;2023-04-06T04:55:46;97537.56;;;-1.27;50.50
70589;BME280;58152;49.202;18.744;2023-04-06T04:58:11;97530.72;;;-1.26;50.25
70589;BME280;58152;49.202;18.744;2023-04-06T05:00:44;97527.25;;;-1.29;50.93
70589;BME280;58152;49.202;18.744;2023-04-06T05:03:16;97529.84;;;-1.27;50.51
70589;BME280;58152;49.202;18.744;2023-04-06T05:05:43;97529.00;;;-1.26;50.28
70589;BME280;58152;49.202;18.744;2023-04-06T05:08:08;97518.69;;;-1.27;50.30
70589;BME280;58152;49.202;18.744;2023-04-06T05:10:34;97528.13;;;-1.25;50.01
70589;BME280;58152;49.202;18.744;2023-04-06T05:13:00;97526.41;;;-1.26;51.07
70589;BME280;58152;49.202;18.744;2023-04-06T05:15:26;97524.69;;;-1.24;50.32
70589;BME280;58152;49.202;18.744;2023-04-06T05:17:51;97522.13;;;-1.27;50.60
70589;BME280;58152;49.202;18.744;2023-04-06T05:20:17;97527.25;;;-1.24;51.04
70589;BME280;58152;49.202;18.744;2023-04-06T05:22:42;97527.25;;;-1.24;51.17
70589;BME280;58152;49.202;18.744;2023-04-06T05:25:08;97527.28;;;-1.21;51.02
70589;BME280;58152;49.202;18.744;2023-04-06T05:27:33;97523.00;;;-1.22;50.71
70589;BME280;58152;49.202;18.744;2023-04-06T05:29:59;97527.28;;;-1.22;50.68
70589;BME280;58152;49.202;18.744;2023-04-06T05:32:25;97519.56;;;-1.21;50.76
70589;BME280;58152;49.202;18.744;2023-04-06T05:34:52;97522.13;;;-1.19;50.93
70589;BME280;58152;49.202;18.744;2023-04-06T05:37:17;97515.31;;;-1.19;51.19
70589;BME280;58152;49.202;18.744;2023-04-06T05:39:42;97514.44;;;-1.16;50.83
70589;BME280;58152;49.202;18.744;2023-04-06T05:42:08;97512.75;;;-1.13;50.77
70589;BME280;58152;49.202;18.744;2023-04-06T05:44:33;97516.16;;;-1.11;50.72
70589;BME280;58152;49.202;18.744;2023-04-06T05:46:59;97517.03;;;-1.09;51.30
70589;BME280;58152;49.202;18.744;2023-04-06T05:49:24;97514.47;;;-1.07;50.72
70589;BME280;58152;49.202;18.744;2023-04-06T05:51:50;97514.47;;;-1.06;50.89
70589;BME280;58152;49.202;18.744;2023-04-06T05:54:15;97511.91;;;-1.04;51.07
70589;BME280;58152;49.202;18.744;2023-04-06T05:56:41;97505.91;;;-1.03;50.50
70589;BME280;58152;49.202;18.744;2023-04-06T05:59:06;97500.72;;;-1.02;50.67
70589;BME280;58152;49.202;18.744;2023-04-06T06:01:33;97508.47;;;-0.97;50.75
70589;BME280;58152;49.202;18.744;2023-04-06T06:04:00;97503.34;;;-0.95;51.20
70589;BME280;58152;49.202;18.744;2023-04-06T06:06:27;97505.94;;;-0.89;51.10
70589;BME280;58152;49.202;18.744;2023-04-06T06:08:52;97493.03;;;-0.89;50.82
70589;BME280;58152;49.202;18.744;2023-04-06T06:11:18;97487.03;;;-0.85;50.91
70589;BME280;58152;49.202;18.744;2023-04-06T06:13:43;97491.34;;;-0.80;50.99
70589;BME280;58152;49.202;18.744;2023-04-06T06:16:09;97494.78;;;-0.76;50.23
70589;BME280;58152;49.202;18.744;2023-04-06T06:18:34;97489.66;;;-0.73;50.38
70589;BME280;58152;49.202;18.744;2023-04-06T06:21:01;97489.66;;;-0.71;50.43
70589;BME280;58152;49.202;18.744;2023-04-06T06:23:26;97485.34;;;-0.66;50.87
70589;BME280;58152;49.202;18.744;2023-04-06T06:25:52;97487.94;;;-0.62;50.84
70589;BME280;58152;49.202;18.744;2023-04-06T06:28:17;97476.78;;;-0.58;50.74
70589;BME280;58152;49.202;18.744;2023-04-06T06:30:43;97481.06;;;-0.55;50.45
70589;BME280;58152;49.202;18.744;2023-04-06T06:33:08;97478.50;;;-0.49;50.45
70589;BME280;58152;49.202;18.744;2023-04-06T06:35:33;97482.78;;;-0.45;50.12
70589;BME280;58152;49.202;18.744;2023-04-06T06:37:59;97482.78;;;-0.42;50.38
70589;BME280;58152;49.202;18.744;2023-04-06T06:40:24;97477.63;;;-0.37;50.14
70589;BME280;58152;49.202;18.744;2023-04-06T06:42:51;97481.94;;;-0.35;50.08
70589;BME280;58152;49.202;18.744;2023-04-06T06:45:16;97489.66;;;-0.29;50.07
70589;BME280;58152;49.202;18.744;2023-04-06T06:47:42;97490.53;;;-0.25;49.87
70589;BME280;58152;49.202;18.744;2023-04-06T06:50:07;97490.53;;;-0.22;49.88
70589;BME280;58152;49.202;18.744;2023-04-06T06:52:33;97481.91;;;-0.19;50.06
70589;BME280;58152;49.202;18.744;2023-04-06T06:54:58;97489.66;;;-0.15;49.68
70589;BME280;58152;49.202;18.744;2023-04-06T06:57:24;97488.78;;;-0.11;49.75
70589;BME280;58152;49.202;18.744;2023-04-06T06:59:49;97483.63;;;-0.06;49.88
70589;BME280;58152;49.202;18.744;2023-04-06T07:02:14;97485.34;;;-0.04;49.44
70589;BME280;58152;49.202;18.744;2023-04-06T07:04:40;97487.06;;;0.01;49.68
70589;BME280;58152;49.202;18.744;2023-04-06T07:07:05;97489.63;;;0.04;49.36
70589;BME280;58152;49.202;18.744;2023-04-06T07:09:31;97493.06;;;0.12;49.67
70589;BME280;58152;49.202;18.744;2023-04-06T07:11:56;97491.34;;;0.14;49.78
70589;BME280;58152;49.202;18.744;2023-04-06T07:14:22;97487.00;;;0.20;49.47
70589;BME280;58152;49.202;18.744;2023-04-06T07:16:47;97489.59;;;0.23;49.24
70589;BME280;58152;49.202;18.744;2023-04-06T07:19:15;97489.59;;;0.25;49.23
70589;BME280;58152;49.202;18.744;2023-04-06T07:21:40;97485.25;;;0.30;49.59
70589;BME280;58152;49.202;18.744;2023-04-06T07:24:06;97495.56;;;0.35;49.16
70589;BME280;58152;49.202;18.744;2023-04-06T07:26:31;97492.13;;;0.39;49.57
70589;BME280;58152;49.202;18.744;2023-04-06T07:28:57;97486.94;;;0.45;48.85
70589;BME280;58152;49.202;18.744;2023-04-06T07:31:22;97490.34;;;0.50;49.26
70589;BME280;58152;49.202;18.744;2023-04-06T07:33:47;97492.94;;;0.53;48.84
70589;BME280;58152;49.202;18.744;2023-04-06T07:36:13;97488.63;;;0.58;49.30
70589;BME280;58152;49.202;18.744;2023-04-06T07:38:38;97492.91;;;0.61;49.08
70589;BME280;58152;49.202;18.744;2023-04-06T07:41:04;97488.59;;;0.63;48.30
70589;BME280;58152;49.202;18.744;2023-04-06T07:43:30;97487.72;;;0.67;48.64
70589;BME280;58152;49.202;18.744;2023-04-06T07:45:56;97486.88;;;0.69;48.62
70589;BME280;58152;49.202;18.744;2023-04-06T07:48:22;97489.41;;;0.72;48.78
70589;BME280;58152;49.202;18.744;2023-04-06T07:50:48;97487.69;;;0.73;48.54
70589;BME280;58152;49.202;18.744;2023-04-06T07:53:13;97482.53;;;0.73;48.77
70589;BME280;58152;49.202;18.744;2023-04-06T07:55:39;97481.66;;;0.77;48.90
70589;BME280;58152;49.202;18.744;2023-04-06T07:58:04;97485.06;;;0.77;48.52
70589;BME280;58152;49.202;18.744;2023-04-06T08:00:30;97486.81;;;0.80;48.73
70589;BME280;58152;49.202;18.744;2023-04-06T08:02:55;97480.78;;;0.83;48.54
70589;BME280;58152;49.202;18.744;2023-04-06T08:05:21;97478.16;;;0.86;48.59
70589;BME280;58152;49.202;18.744;2023-04-06T08:07:46;97490.19;;;0.91;48.08
70589;BME280;58152;49.202;18.744;2023-04-06T08:10:12;97479.84;;;0.94;48.13
70589;BME280;58152;49.202;18.744;2023-04-06T08:12:37;97484.97;;;1.04;47.98
70589;BME280;58152;49.202;18.744;2023-04-06T08:15:03;97483.19;;;1.09;48.03
70589;BME280;58152;49.202;18.744;2023-04-06T08:17:29;97486.63;;;1.15;47.58
70589;BME280;58152;49.202;18.744;2023-04-06T08:19:55;97478.84;;;1.20;47.58
70589;BME280;58152;49.202;18.744;2023-04-06T08:22:21;97487.41;;;1.26;47.94
70589;BME280;58152;49.202;18.744;2023-04-06T08:24:46;97476.16;;;1.34;47.15
70589;BME280;58152;49.202;18.744;2023-04-06T08:27:12;97474.41;;;1.37;47.46
70589;BME280;58152;49.202;18.744;2023-04-06T08:29:39;97477.81;;;1.47;47.67
70589;BME280;58152;49.202;18.744;2023-04-06T08:32:04;97471.75;;;1.48;47.32
70589;BME280;58152;49.202;18.744;2023-04-06T08:34:32;97490.63;;;1.58;47.38
70589;BME280;58152;49.202;18.744;2023-04-06T08:36:58;97473.38;;;1.60;47.12
70589;BME280;58152;49.202;18.744;2023-04-06T08:39:23;97456.09;;;1.63;47.19
70589;BME280;58152;49.202;18.744;2023-04-06T08:41:51;97464.66;;;1.71;46.84
70589;BME280;58152;49.202;18.744;2023-04-06T08:44:17;97464.63;;;1.73;47.03
70589;BME280;58152;49.202;18.744;2023-04-06T08:46:43;97460.28;;;1.78;46.44
70589;BME280;58152;49.202;18.744;2023-04-06T08:49:08;97462.84;;;1.81;46.23
70589;BME280;58152;49.202;18.744;2023-04-06T08:51:37;97441.31;;;1.79;46.04
70589;BME280;58152;49.202;18.744;2023-04-06T08:54:04;97459.34;;;1.87;46.22
70589;BME280;58152;49.202;18.744;2023-04-06T08:56:30;97448.94;;;1.91;46.32
70589;BME280;58152;49.202;18.744;2023-04-06T08:58:56;97461.00;;;1.95;45.80
70589;BME280;58152;49.202;18.744;2023-04-06T09:01:29;97450.63;;;1.97;45.62
70589;BME280;58152;49.202;18.744;2023-04-06T09:03:58;97442.81;;;2.01;45.56
70589;BME280;58152;49.202;18.744;2023-04-06T09:06:26;97437.59;;;2.08;45.72
70589;BME280;58152;49.202;18.744;2023-04-06T09:08:56;97438.41;;;2.13;45.86
70589;BME280;58152;49.202;18.744;2023-04-06T09:11:22;97446.97;;;2.18;45.50
70589;BME280;58152;49.202;18.744;2023-04-06T09:13:49;97441.72;;;2.22;45.22
70589;BME280;58152;49.202;18.744;2023-04-06T09:16:15;97436.47;;;2.28;45.29
70589;BME280;58152;49.202;18.744;2023-04-06T09:18:41;97438.13;;;2.36;45.60
70589;BME280;58152;49.202;18.744;2023-04-06T09:21:07;97433.78;;;2.39;45.11
70589;BME280;58152;49.202;18.744;2023-04-06T09:23:33;97442.31;;;2.49;45.61
70589;BME280;58152;49.202;18.744;2023-04-06T09:26:14;97441.38;;;2.54;45.06
70589;BME280;58152;49.202;18.744;2023-04-06T09:28:49;97425.78;;;2.58;44.81
70589;BME280;58152;49.202;18.744;2023-04-06T09:31:17;97438.66;;;2.64;44.81
70589;BME280;58152;49.202;18.744;2023-04-06T09:33:46;97424.00;;;2.63;44.63
70589;BME280;58152;49.202;18.744;2023-04-06T09:36:12;97432.53;;;2.69;44.72
70589;BME280;58152;49.202;18.744;2023-04-06T09:38:54;97425.53;;;2.77;44.68
70589;BME280;58152;49.202;18.744;2023-04-06T09:41:34;97428.88;;;2.86;44.08
70589;BME280;58152;49.202;18.744;2023-04-06T09:44:06;97421.00;;;2.92;43.87
70589;BME280;58152;49.202;18.744;2023-04-06T09:46:34;97418.34;;;2.96;43.81
70589;BME280;58152;49.202;18.744;2023-04-06T09:49:01;97418.22;;;3.07;43.88
70589;BME280;58152;49.202;18.744;2023-04-06T09:51:30;97419.78;;;3.16;43.86
70589;BME280;58152;49.202;18.744;2023-04-06T09:53:57;97412.75;;;3.25;43.72
70589;BME280;58152;49.202;18.744;2023-04-06T09:56:28;97410.03;;;3.35;43.35
70589;BME280;58152;49.202;18.744;2023-04-06T09:58:57;97409.06;;;3.39;43.57
70589;BME280;58152;49.202;18.744;2023-04-06T10:01:28;97407.28;;;3.44;43.80
70589;BME280;58152;49.202;18.744;2023-04-06T10:04:07;97414.91;;;3.51;43.39
70589;BME280;58152;49.202;18.744;2023-04-06T10:06:37;97401.88;;;3.56;43.57
70589;BME280;58152;49.202;18.744;2023-04-06T10:09:04;97408.69;;;3.62;43.68
70589;BME280;58152;49.202;18.744;2023-04-06T10:11:33;97399.97;;;3.67;43.35
70589;BME280;58152;49.202;18.744;2023-04-06T10:13:58;97404.25;;;3.68;43.39
70589;BME280;58152;49.202;18.744;2023-04-06T10:16:24;97399.88;;;3.72;43.19
70589;BME280;58152;49.202;18.744;2023-04-06T10:18:56;97411.13;;;3.71;43.40
70589;BME280;58152;49.202;18.744;2023-04-06T10:21:25;97404.19;;;3.73;43.37
70589;BME280;58152;49.202;18.744;2023-04-06T10:23:56;97404.09;;;3.77;43.42
70589;BME280;58152;49.202;18.744;2023-04-06T10:26:22;97401.44;;;3.82;43.08
70589;BME280;58152;49.202;18.744;2023-04-06T10:28:49;97401.44;;;3.82;43.11
70589;BME280;58152;49.202;18.744;2023-04-06T10:31:15;97397.13;;;3.81;43.19
70589;BME280;58152;49.202;18.744;2023-04-06T10:34:01;97395.38;;;3.81;43.46
70589;BME280;58152;49.202;18.744;2023-04-06T10:36:31;97400.50;;;3.86;43.70
70589;BME280;58152;49.202;18.744;2023-04-06T10:38:59;97392.38;;;4.03;43.14
70589;BME280;58152;49.202;18.744;2023-04-06T10:41:44;97394.88;;;4.09;42.69
70589;BME280;58152;49.202;18.744;2023-04-06T10:44:20;97403.47;;;4.13;42.88
70589;BME280;58152;49.202;18.744;2023-04-06T10:46:55;97395.63;;;4.14;43.13
70589;BME280;58152;49.202;18.744;2023-04-06T10:49:21;97411.94;;;4.21;42.74
70589;BME280;58152;49.202;18.744;2023-04-06T10:51:51;97401.59;;;4.19;43.06
70589;BME280;58152;49.202;18.744;2023-04-06T10:54:17;97405.13;;;4.15;42.95
70589;BME280;58152;49.202;18.744;2023-04-06T10:56:43;97410.38;;;4.12;43.06
70589;BME280;58152;49.202;18.744;2023-04-06T10:59:09;97410.53;;;4.04;43.17
70589;BME280;58152;49.202;18.744;2023-04-06T11:01:34;97404.50;;;4.04;43.18
70589;BME280;58152;49.202;18.744;2023-04-06T11:04:00;97414.81;;;4.07;42.92
70589;BME280;58152;49.202;18.744;2023-04-06T11:06:30;97410.34;;;4.15;43.12
70589;BME280;58152;49.202;18.744;2023-04-06T11:08:59;97403.13;;;4.29;42.91
70589;BME280;58152;49.202;18.744;2023-04-06T11:11:26;97414.91;;;4.47;43.10
70589;BME280;58152;49.202;18.744;2023-04-06T11:13:58;97412.16;;;4.53;42.96
70589;BME280;58152;49.202;18.744;2023-04-06T11:16:30;97402.38;;;4.66;42.54
70589;BME280;58152;49.202;18.744;2023-04-06T11:18:58;97416.16;;;4.70;42.76
70589;BME280;58152;49.202;18.744;2023-04-06T11:21:41;97410.16;;;4.68;42.58
70589;BME280;58152;49.202;18.744;2023-04-06T11:24:13;97417.25;;;4.58;42.72
70589;BME280;58152;49.202;18.744;2023-04-06T11:26:59;97414.47;;;4.69;43.14
70589;BME280;58152;49.202;18.744;2023-04-06T11:29:27;97411.63;;;4.79;42.90
70589;BME280;58152;49.202;18.744;2023-04-06T11:31:58;97407.13;;;4.88;42.62
70589;BME280;58152;49.202;18.744;2023-04-06T11:34:24;97406.09;;;4.95;41.93
70589;BME280;58152;49.202;18.744;2023-04-06T11:37:07;97404.22;;;5.01;41.86
70589;BME280;58152;49.202;18.744;2023-04-06T11:39:38;97412.03;;;5.01;42.13
70589;BME280;58152;49.202;18.744;2023-04-06T11:42:05;97403.59;;;4.90;42.19
70589;BME280;58152;49.202;18.744;2023-04-06T11:47:01;97411.69;;;4.76;42.46
70589;BME280;58152;49.202;18.744;2023-04-06T11:49:31;97403.22;;;4.68;42.27
70589;BME280;58152;49.202;18.744;2023-04-06T11:51:59;97408.59;;;4.59;42.48
70589;BME280;58152;49.202;18.744;2023-04-06T11:54:36;97401.00;;;4.48;42.83
70589;BME280;58152;49.202;18.744;2023-04-06T11:57:04;97419.38;;;4.39;43.21
70589;BME280;58152;49.202;18.744;2023-04-06T11:59:30;97407.41;;;4.32;43.60
70589;BME280;58152;49.202;18.744;2023-04-06T12:01:57;97411.81;;;4.28;44.03
70589;BME280;58152;49.202;18.744;2023-04-06T12:04:22;97403.25;;;4.23;44.02
70589;BME280;58152;49.202;18.744;2023-04-06T12:06:48;97403.25;;;4.23;44.32
70589;BME280;58152;49.202;18.744;2023-04-06T12:09:13;97392.16;;;4.15;43.86
70589;BME280;58152;49.202;18.744;2023-04-06T12:11:39;97404.28;;;4.15;43.81
70589;BME280;58152;49.202;18.744;2023-04-06T12:14:06;97406.88;;;4.15;44.50
70589;BME280;58152;49.202;18.744;2023-04-06T12:16:33;97392.25;;;4.11;44.59
70589;BME280;58152;49.202;18.744;2023-04-06T12:18:59;97406.03;;;4.14;44.44
70589;BME280;58152;49.202;18.744;2023-04-06T12:21:27;97400.88;;;4.13;44.90
70589;BME280;58152;49.202;18.744;2023-04-06T12:23:53;97393.94;;;4.13;44.93
70589;BME280;58152;49.202;18.744;2023-04-06T12:26:18;97402.59;;;4.12;44.68
70589;BME280;58152;49.202;18.744;2023-04-06T12:28:44;97393.13;;;4.10;44.19
70589;BME280;58152;49.202;18.744;2023-04-06T12:31:19;97406.13;;;4.10;44.87
70589;BME280;58152;49.202;18.744;2023-04-06T12:33:51;97396.63;;;4.07;45.20
70589;BME280;58152;49.202;18.744;2023-04-06T12:36:18;97401.00;;;4.05;44.96
70589;BME280;58152;49.202;18.744;2023-04-06T12:38:44;97405.34;;;4.03;45.46
70589;BME280;58152;49.202;18.744;2023-04-06T12:41:11;97405.44;;;4.00;45.58
70589;BME280;58152;49.202;18.744;2023-04-06T12:43:37;97411.53;;;3.97;45.41
70589;BME280;58152;49.202;18.744;2023-04-06T12:46:03;97408.94;;;3.97;46.11
70589;BME280;58152;49.202;18.744;2023-04-06T12:48:28;97403.72;;;3.99;45.76
70589;BME280;58152;49.202;18.744;2023-04-06T12:51:02;97399.41;;;3.98;46.43
70589;BME280;58152;49.202;18.744;2023-04-06T12:53:28;97405.41;;;4.01;46.48
70589;BME280;58152;49.202;18.744;2023-04-06T12:55:54;97405.44;;;4.00;46.98